createdAt,value
2023-04-14T00:00:15.738Z,77.62
2023-04-14T00:02:49.144Z,77.37
2023-04-14T00:05:19.311Z,77.31
2023-04-14T00:07:47.736Z,77.56
2023-04-14T00:10:16.206Z,77.85
2023-04-14T00:12:44.600Z,77.34
2023-04-14T00:15:13.107Z,77.00
2023-04-14T00:17:41.541Z,77.56
2023-04-14T00:20:10.895Z,77.46
2023-04-14T00:22:40.620Z,77.10
2023-04-14T00:25:09.770Z,77.07
2023-04-14T00:27:38.161Z,76.97
2023-04-14T00:30:07.961Z,77.06
2023-04-14T00:32:36.550Z,77.43
2023-04-14T00:35:05.290Z,77.84
2023-04-14T00:37:33.820Z,77.75
2023-04-14T00:40:03.783Z,77.40
2023-04-14T00:42:43.076Z,77.75
2023-04-14T00:45:12.609Z,77.64
2023-04-14T00:47:49.245Z,77.80
2023-04-14T00:50:19.591Z,77.46
2023-04-14T00:52:51.261Z,77.70
2023-04-14T00:55:21.886Z,77.74
2023-04-14T00:57:51.162Z,77.82
2023-04-14T01:00:20.211Z,77.85
2023-04-14T01:02:48.622Z,77.73
2023-04-14T01:05:17.383Z,77.64
2023-04-14T01:07:48.405Z,77.97
2023-04-14T01:10:17.287Z,78.55
2023-04-14T01:13:13.141Z,78.78
2023-04-14T01:15:48.465Z,79.16
2023-04-14T01:18:22.447Z,78.78
2023-04-14T01:20:53.760Z,79.18
2023-04-14T01:23:28.857Z,79.26
2023-04-14T01:26:19.585Z,78.62
2023-04-14T01:29:38.340Z,78.49
2023-04-14T01:32:10.615Z,78.36
2023-04-14T01:34:45.878Z,78.57
2023-04-14T01:37:16.825Z,78.29
2023-04-14T01:39:51.030Z,78.35
2023-04-14T01:42:28.836Z,77.93
2023-04-14T01:45:00.671Z,78.53
2023-04-14T01:47:32.390Z,78.01
2023-04-14T01:50:02.244Z,78.48
2023-04-14T01:52:32.563Z,77.91
2023-04-14T01:55:05.795Z,78.24
2023-04-14T01:57:35.734Z,77.81
2023-04-14T02:00:05.501Z,77.98
2023-04-14T02:02:37.850Z,78.41
2023-04-14T02:05:09.956Z,78.74
2023-04-14T02:07:39.983Z,78.15
2023-04-14T02:10:11.428Z,78.72
2023-04-14T02:12:52.194Z,78.57
2023-04-14T02:15:30.978Z,79.10
2023-04-14T02:18:01.956Z,79.05
2023-04-14T02:20:30.793Z,79.11
2023-04-14T02:22:59.460Z,79.95
2023-04-14T02:25:33.576Z,79.30
2023-04-14T02:28:06.477Z,79.98
2023-04-14T02:30:39.632Z,79.67
2023-04-14T02:33:13.158Z,79.44
2023-04-14T02:35:45.864Z,79.68
2023-04-14T02:38:20.477Z,79.85
2023-04-14T02:40:49.533Z,79.71
2023-04-14T02:43:21.633Z,79.77
2023-04-14T02:45:53.830Z,79.71
2023-04-14T02:48:29.210Z,79.68
2023-04-14T02:51:00.134Z,79.34
2023-04-14T02:53:31.073Z,79.82
2023-04-14T02:56:00.318Z,79.21
2023-04-14T02:58:30.275Z,79.84
2023-04-14T03:00:59.207Z,79.81
2023-04-14T03:03:31.347Z,79.45
2023-04-14T03:06:00.270Z,80.22
2023-04-14T03:08:30.156Z,80.18
2023-04-14T03:11:00.013Z,79.87
2023-04-14T03:13:32.159Z,80.21
2023-04-14T03:16:00.876Z,80.11
2023-04-14T03:18:32.115Z,80.15
2023-04-14T03:21:02.586Z,80.46
2023-04-14T03:23:32.281Z,80.52
2023-04-14T03:26:03.333Z,80.34
2023-04-14T03:28:37.031Z,80.43
2023-04-14T03:31:07.305Z,80.17
2023-04-14T03:33:38.700Z,80.18
2023-04-14T03:36:09.071Z,80.42
2023-04-14T03:38:38.041Z,79.90
2023-04-14T03:41:09.677Z,80.65
2023-04-14T03:43:39.282Z,80.33
2023-04-14T03:46:07.799Z,80.33
2023-04-14T03:48:42.638Z,79.96
2023-04-14T03:51:15.079Z,79.92
2023-04-14T03:53:46.412Z,80.68
2023-04-14T03:56:16.626Z,80.57
2023-04-14T03:58:49.402Z,80.69
2023-04-14T04:01:19.470Z,80.86
2023-04-14T04:03:49.852Z,80.71
2023-04-14T04:06:18.670Z,81.08
2023-04-14T04:08:50.631Z,80.54
2023-04-14T04:11:20.856Z,80.38
2023-04-14T04:13:50.233Z,80.65
2023-04-14T04:16:19.791Z,80.65
2023-04-14T04:18:51.324Z,81.18
2023-04-14T04:21:21.415Z,80.92
2023-04-14T04:23:53.308Z,80.73
2023-04-14T04:26:23.521Z,80.17
2023-04-14T04:28:52.530Z,80.35
2023-04-14T04:31:23.241Z,80.24
2023-04-14T04:34:03.107Z,80.32
2023-04-14T04:36:32.986Z,80.21
2023-04-14T04:39:01.633Z,80.43
2023-04-14T04:41:31.820Z,80.15
2023-04-14T04:44:00.285Z,80.47
2023-04-14T04:46:46.152Z,80.41
2023-04-14T04:49:15.895Z,80.18
2023-04-14T04:51:44.382Z,80.46
2023-04-14T04:54:12.867Z,80.34
2023-04-14T04:56:41.215Z,80.27
2023-04-14T04:59:09.939Z,80.49
2023-04-14T05:01:38.462Z,80.17
2023-04-14T05:04:07.340Z,80.52
2023-04-14T05:06:38.218Z,80.07
2023-04-14T05:09:06.974Z,80.15
2023-04-14T05:11:36.190Z,80.53
2023-04-14T05:14:04.822Z,80.62
2023-04-14T05:16:33.539Z,80.66
2023-04-14T05:19:03.041Z,80.33
2023-04-14T05:21:31.757Z,80.56
2023-04-14T05:24:01.683Z,80.17
2023-04-14T05:26:52.064Z,80.32
2023-04-14T05:29:19.591Z,80.17
2023-04-14T05:31:48.399Z,80.55
2023-04-14T05:34:16.848Z,80.17
2023-04-14T05:36:45.459Z,80.56
2023-04-14T05:39:15.160Z,80.27
2023-04-14T05:41:43.597Z,80.44
2023-04-14T05:44:11.979Z,80.34
2023-04-14T05:46:41.278Z,80.40
2023-04-14T05:49:09.744Z,80.28
2023-04-14T05:51:41.492Z,80.53
2023-04-14T05:54:09.888Z,81.15
2023-04-14T05:56:40.252Z,81.17
2023-04-14T05:59:09.040Z,80.56
2023-04-14T06:01:37.450Z,80.71
2023-04-14T06:04:06.249Z,80.55
2023-04-14T06:06:35.193Z,81.17
2023-04-14T06:09:03.660Z,81.12
2023-04-14T06:11:34.287Z,80.92
2023-04-14T06:14:05.464Z,80.77
2023-04-14T06:16:34.696Z,81.30
2023-04-14T06:19:03.733Z,80.91
2023-04-14T06:21:34.011Z,81.12
2023-04-14T06:24:02.377Z,81.19
2023-04-14T06:26:34.481Z,81.91
2023-04-14T06:29:07.469Z,81.92
2023-04-14T06:31:36.035Z,81.47
2023-04-14T06:34:04.454Z,81.86
2023-04-14T06:36:34.754Z,81.80
2023-04-14T06:39:03.439Z,82.27
2023-04-14T06:41:34.955Z,81.83
2023-04-14T06:44:04.817Z,82.06
2023-04-14T06:46:36.058Z,82.39
2023-04-14T06:49:04.847Z,82.15
2023-04-14T06:51:36.727Z,82.27
2023-04-14T06:54:05.373Z,82.35
2023-04-14T06:56:33.801Z,82.38
2023-04-14T06:59:02.473Z,82.07
2023-04-14T07:01:33.178Z,82.50
2023-04-14T07:04:07.479Z,81.98
2023-04-14T07:06:36.453Z,82.21
2023-04-14T07:09:05.030Z,82.35
2023-04-14T07:11:34.275Z,82.08
2023-04-14T07:14:03.087Z,82.41
2023-04-14T07:16:33.592Z,82.16
2023-04-14T07:19:04.360Z,82.42
2023-04-14T07:21:33.977Z,82.31
2023-04-14T07:24:02.617Z,82.23
2023-04-14T07:26:31.579Z,82.94
2023-04-14T07:29:00.030Z,82.51
2023-04-14T07:31:29.264Z,82.88
2023-04-14T07:33:59.292Z,82.82
2023-04-14T07:36:28.070Z,83.12
2023-04-14T07:38:56.466Z,82.59
2023-04-14T07:41:25.655Z,82.83
2023-04-14T07:43:55.753Z,82.64
2023-04-14T07:46:24.255Z,83.05
2023-04-14T07:48:52.702Z,82.65
2023-04-14T07:51:22.752Z,82.68
2023-04-14T07:53:53.097Z,82.46
2023-04-14T07:56:22.390Z,82.98
2023-04-14T07:58:50.887Z,82.80
2023-04-14T08:01:19.368Z,83.15
2023-04-14T08:03:48.081Z,82.82
2023-04-14T08:06:16.912Z,83.36
2023-04-14T08:08:46.649Z,83.04
2023-04-14T08:11:15.069Z,83.20
2023-04-14T08:13:44.400Z,83.40
2023-04-14T08:16:12.932Z,83.27
2023-04-14T08:18:41.542Z,83.39
2023-04-14T08:21:10.029Z,83.86
2023-04-14T08:23:38.412Z,83.44
2023-04-14T08:26:08.163Z,83.79
2023-04-14T08:28:37.262Z,84.29
2023-04-14T08:31:05.810Z,84.01
2023-04-14T08:33:34.900Z,83.71
2023-04-14T08:36:03.321Z,83.77
2023-04-14T08:38:32.853Z,83.60
2023-04-14T08:41:03.743Z,83.91
2023-04-14T08:43:36.551Z,83.72
2023-04-14T08:46:06.127Z,83.68
2023-04-14T08:48:37.756Z,83.55
2023-04-14T08:51:11.361Z,84.17
2023-04-14T08:53:45.184Z,83.67
2023-04-14T08:56:16.339Z,83.66
2023-04-14T08:58:47.325Z,83.85
2023-04-14T09:01:16.775Z,83.58
2023-04-14T09:03:46.118Z,84.06
2023-04-14T09:06:15.341Z,83.55
2023-04-14T09:08:44.550Z,83.56
2023-04-14T09:11:16.810Z,83.85
2023-04-14T09:13:50.180Z,84.22
2023-04-14T09:16:22.454Z,84.26
2023-04-14T09:18:51.121Z,83.62
2023-04-14T09:21:30.432Z,84.31
2023-04-14T09:24:11.060Z,83.74
2023-04-14T09:26:40.584Z,83.92
2023-04-14T09:29:10.414Z,84.19
2023-04-14T09:31:39.052Z,84.06
2023-04-14T09:34:16.715Z,84.13
2023-04-14T09:37:01.057Z,84.25
2023-04-14T09:39:29.737Z,83.68
2023-04-14T09:41:58.280Z,83.86
2023-04-14T09:44:28.477Z,84.09
2023-04-14T09:47:01.044Z,84.02
2023-04-14T09:49:30.326Z,84.70
2023-04-14T09:52:05.257Z,84.60
2023-04-14T09:54:35.964Z,85.09
2023-04-14T09:57:04.645Z,84.42
2023-04-14T09:59:36.860Z,84.83
2023-04-14T10:02:07.911Z,84.86
2023-04-14T10:04:37.432Z,84.55
2023-04-14T10:07:08.539Z,85.06
2023-04-14T10:09:38.526Z,85.06
2023-04-14T10:12:12.166Z,85.44
2023-04-14T10:14:42.736Z,84.82
2023-04-14T10:17:11.867Z,84.51
2023-04-14T10:19:40.761Z,85.21
2023-04-14T10:22:09.315Z,84.74
2023-04-14T10:24:38.182Z,84.96
2023-04-14T10:27:07.342Z,85.40
2023-04-14T10:29:36.073Z,84.86
2023-04-14T10:32:08.955Z,85.31
2023-04-14T10:34:42.038Z,85.40
2023-04-14T10:37:15.107Z,85.54
2023-04-14T10:39:43.828Z,85.18
2023-04-14T10:42:12.377Z,85.81
2023-04-14T10:44:40.807Z,85.51
2023-04-14T10:47:10.866Z,85.52
2023-04-14T10:49:41.324Z,85.98
2023-04-14T10:52:33.783Z,85.21
2023-04-14T10:55:08.932Z,85.84
2023-04-14T10:57:41.259Z,85.19
2023-04-14T11:00:26.251Z,85.39
2023-04-14T11:03:03.821Z,85.52
2023-04-14T11:05:34.548Z,85.22
2023-04-14T11:08:13.925Z,85.07
2023-04-14T11:10:48.158Z,85.18
2023-04-14T11:13:17.740Z,84.76
2023-04-14T11:15:57.837Z,85.10
2023-04-14T11:18:44.136Z,85.11
2023-04-14T11:21:16.843Z,84.96
2023-04-14T11:23:45.596Z,85.17
2023-04-14T11:26:14.688Z,85.22
2023-04-14T11:28:44.514Z,85.06
2023-04-14T11:31:15.549Z,85.27
2023-04-14T11:33:46.294Z,85.32
2023-04-14T11:36:14.742Z,85.38
2023-04-14T11:38:44.009Z,85.35
2023-04-14T11:41:16.312Z,85.63
2023-04-14T11:43:49.049Z,84.94
2023-04-14T11:46:20.691Z,85.19
2023-04-14T11:48:55.500Z,84.97
2023-04-14T11:51:30.679Z,84.99
2023-04-14T11:54:00.967Z,85.06
2023-04-14T11:56:31.355Z,84.74
2023-04-14T11:59:03.413Z,84.86
2023-04-14T12:01:32.626Z,84.45
2023-04-14T12:04:02.912Z,84.30
2023-04-14T12:06:38.732Z,84.71
2023-04-14T12:09:10.335Z,84.51
2023-04-14T12:11:38.963Z,84.37
2023-04-14T12:14:07.518Z,84.09
2023-04-14T12:16:36.935Z,84.13
2023-04-14T12:19:06.798Z,84.01
2023-04-14T12:21:35.260Z,83.89
2023-04-14T12:24:03.816Z,84.05
2023-04-14T12:26:32.657Z,84.10
2023-04-14T12:29:02.106Z,84.14
2023-04-14T12:31:31.243Z,84.25
2023-04-14T12:34:04.169Z,84.51
2023-04-14T12:36:49.485Z,84.20
2023-04-14T12:39:18.439Z,84.52
2023-04-14T12:41:47.182Z,84.45
2023-04-14T12:44:20.524Z,84.21
2023-04-14T12:46:52.977Z,84.35
2023-04-14T12:49:35.011Z,84.33
2023-04-14T12:52:05.806Z,84.12
2023-04-14T12:54:48.106Z,83.97
2023-04-14T12:57:16.516Z,83.77
2023-04-14T12:59:45.726Z,83.82
2023-04-14T13:02:14.333Z,83.82
2023-04-14T13:04:43.390Z,83.74
2023-04-14T13:07:13.195Z,83.76
2023-04-14T13:09:42.516Z,83.64
2023-04-14T13:12:10.951Z,83.74
2023-04-14T13:14:39.628Z,83.45
2023-04-14T13:17:10.469Z,83.38
2023-04-14T13:19:40.338Z,83.04
2023-04-14T13:22:08.719Z,83.09
2023-04-14T13:24:41.475Z,83.11
2023-04-14T13:27:10.016Z,83.34
2023-04-14T13:29:41.159Z,83.06
2023-04-14T13:32:11.469Z,82.98
2023-04-14T13:34:40.927Z,83.06
2023-04-14T13:37:09.340Z,83.01
2023-04-14T13:39:40.290Z,82.77
2023-04-14T13:42:08.751Z,82.89
2023-04-14T13:44:39.208Z,83.07
2023-04-14T13:47:07.762Z,83.22
2023-04-14T13:49:39.964Z,83.55
2023-04-14T13:52:09.469Z,83.64
2023-04-14T13:54:41.933Z,83.75
2023-04-14T13:57:10.601Z,83.28
2023-04-14T13:59:40.464Z,83.55
2023-04-14T14:02:09.044Z,83.36
2023-04-14T14:04:40.649Z,83.44
2023-04-14T14:07:09.201Z,83.30
2023-04-14T14:09:40.073Z,83.16
2023-04-14T14:12:12.672Z,83.07
2023-04-14T14:14:41.359Z,82.70
2023-04-14T14:17:10.206Z,82.71
2023-04-14T14:19:39.972Z,82.98
2023-04-14T14:22:08.519Z,82.91
2023-04-14T14:24:37.276Z,82.49
2023-04-14T14:27:07.205Z,82.77
2023-04-14T14:29:37.471Z,82.17
2023-04-14T14:32:06.513Z,81.78
2023-04-14T14:34:34.948Z,82.03
2023-04-14T14:37:03.347Z,81.47
2023-04-14T14:39:32.665Z,81.93
2023-04-14T14:42:01.265Z,81.23
2023-04-14T14:44:31.319Z,81.53
2023-04-14T14:46:59.870Z,81.76
2023-04-14T14:49:28.383Z,81.48
2023-04-14T14:51:57.107Z,81.71
2023-04-14T14:54:25.557Z,81.73
2023-04-14T14:56:53.889Z,81.52
2023-04-14T14:59:22.324Z,81.59
2023-04-14T15:01:52.111Z,82.16
2023-04-14T15:04:20.627Z,82.23
2023-04-14T15:06:49.134Z,82.87
2023-04-14T15:09:17.480Z,83.18
2023-04-14T15:11:47.168Z,82.91
2023-04-14T15:14:15.595Z,82.83
2023-04-14T15:16:44.048Z,83.01
2023-04-14T15:19:15.477Z,82.91
2023-04-14T15:21:44.271Z,83.10
2023-04-14T15:24:12.939Z,82.79
2023-04-14T15:26:41.311Z,82.75
2023-04-14T15:29:09.953Z,82.65
2023-04-14T15:31:39.925Z,82.45
2023-04-14T15:34:08.380Z,82.35
2023-04-14T15:36:38.318Z,81.77
2023-04-14T15:39:07.123Z,81.96
2023-04-14T15:41:36.360Z,82.16
2023-04-14T15:44:04.929Z,82.00
2023-04-14T15:46:33.253Z,82.06
2023-04-14T15:49:01.564Z,81.98
2023-04-14T15:51:30.047Z,81.93
2023-04-14T15:54:00.154Z,82.20
2023-04-14T15:56:29.869Z,82.47
2023-04-14T15:58:58.501Z,82.56
2023-04-14T16:01:26.937Z,82.74
2023-04-14T16:03:55.697Z,82.32
2023-04-14T16:06:24.354Z,82.77
2023-04-14T16:08:53.389Z,82.85
2023-04-14T16:11:24.015Z,82.98
2023-04-14T16:13:53.353Z,83.09
2023-04-14T16:16:22.068Z,82.99
2023-04-14T16:18:50.826Z,83.09
2023-04-14T16:21:19.278Z,82.86
2023-04-14T16:23:47.618Z,83.20
2023-04-14T16:26:17.273Z,82.80
2023-04-14T16:28:47.093Z,83.06
2023-04-14T16:31:16.109Z,83.06
2023-04-14T16:33:44.572Z,83.01
2023-04-14T16:36:12.920Z,83.13
2023-04-14T16:38:41.489Z,83.32
2023-04-14T16:41:10.097Z,83.06
2023-04-14T16:43:38.810Z,82.85
2023-04-14T16:46:08.893Z,83.08
2023-04-14T16:48:40.531Z,82.97
2023-04-14T16:51:10.863Z,83.05
2023-04-14T16:53:41.178Z,82.74
2023-04-14T16:56:11.324Z,83.07
2023-04-14T16:58:40.263Z,83.26
2023-04-14T17:01:10.276Z,83.38
2023-04-14T17:03:39.305Z,83.23
2023-04-14T17:06:07.999Z,83.02
2023-04-14T17:08:36.457Z,83.12
2023-04-14T17:11:04.940Z,83.38
2023-04-14T17:13:33.444Z,83.24
2023-04-14T17:16:09.010Z,83.62
2023-04-14T17:18:41.504Z,83.30
2023-04-14T17:21:09.960Z,83.51
2023-04-14T17:23:39.207Z,83.53
2023-04-14T17:26:07.872Z,83.71
2023-04-14T17:28:36.276Z,83.65
2023-04-14T17:31:11.342Z,83.23
2023-04-14T17:33:43.004Z,83.35
2023-04-14T17:36:16.575Z,83.21
2023-04-14T17:38:45.898Z,83.29
2023-04-14T17:41:14.839Z,83.26
2023-04-14T17:43:43.720Z,83.35
2023-04-14T17:46:12.197Z,82.88
2023-04-14T17:48:43.477Z,82.93
2023-04-14T17:51:12.600Z,83.46
2023-04-14T17:53:43.061Z,83.26
2023-04-14T17:56:12.756Z,83.47
2023-04-14T17:58:42.898Z,83.34
2023-04-14T18:01:11.796Z,83.62
2023-04-14T18:03:43.809Z,83.69
2023-04-14T18:06:12.445Z,83.97
2023-04-14T18:08:42.373Z,83.68
2023-04-14T18:11:12.099Z,84.23
2023-04-14T18:13:41.637Z,84.09
2023-04-14T18:16:10.704Z,83.86
2023-04-14T18:18:39.425Z,83.82
2023-04-14T18:21:09.536Z,84.15
2023-04-14T18:23:38.366Z,84.26
2023-04-14T18:28:39.064Z,83.95
2023-04-14T18:31:08.760Z,83.81
2023-04-14T18:33:37.172Z,83.71
2023-04-14T18:36:05.556Z,83.46
2023-04-14T18:38:35.367Z,83.87
2023-04-14T18:41:04.815Z,83.34
2023-04-14T18:43:34.003Z,83.35
2023-04-14T18:46:02.595Z,83.34
2023-04-14T18:48:31.747Z,83.41
2023-04-14T18:51:04.343Z,83.32
2023-04-14T18:53:32.876Z,83.17
2023-04-14T18:56:02.839Z,83.06
2023-04-14T18:58:31.765Z,83.50
2023-04-14T19:01:00.271Z,83.54
2023-04-14T19:03:32.085Z,83.86
2023-04-14T19:06:00.581Z,83.94
2023-04-14T19:08:29.638Z,83.48
2023-04-14T19:10:59.322Z,83.56
2023-04-14T19:13:29.172Z,83.71
2023-04-14T19:16:11.535Z,83.41
2023-04-14T19:18:41.108Z,83.35
2023-04-14T19:21:09.674Z,83.45
2023-04-14T19:23:41.190Z,83.29
2023-04-14T19:26:11.455Z,83.18
2023-04-14T19:28:42.662Z,83.25
2023-04-14T19:31:12.538Z,83.09
2023-04-14T19:33:50.051Z,83.03
2023-04-14T19:36:19.326Z,82.99
2023-04-14T19:38:47.721Z,82.89
2023-04-14T19:41:16.272Z,82.93
2023-04-14T19:43:46.231Z,83.28
2023-04-14T19:46:15.132Z,83.17
2023-04-14T19:48:45.205Z,83.12
2023-04-14T19:51:13.640Z,83.03
2023-04-14T19:53:43.453Z,82.96
2023-04-14T19:56:12.783Z,83.23
2023-04-14T19:58:41.757Z,82.96
2023-04-14T20:01:11.754Z,83.51
2023-04-14T20:04:06.378Z,83.38
2023-04-14T20:06:30.630Z,83.41
2023-04-14T20:08:59.299Z,83.57
2023-04-14T20:11:28.227Z,83.53
2023-04-14T20:13:56.718Z,83.54
2023-04-14T20:16:26.669Z,83.48
2023-04-14T20:18:55.553Z,83.70
2023-04-14T20:21:24.159Z,83.41
2023-04-14T20:23:52.572Z,83.88
2023-04-14T20:26:21.562Z,84.10
2023-04-14T20:28:50.422Z,84.17
2023-04-14T20:31:18.887Z,84.48
2023-04-14T20:33:48.946Z,84.19
2023-04-14T20:36:17.371Z,84.25
2023-04-14T20:38:45.824Z,84.13
2023-04-14T20:41:14.215Z,84.19
2023-04-14T20:43:46.612Z,84.27
2023-04-14T20:46:15.616Z,84.39
2023-04-14T20:48:44.646Z,84.46
2023-04-14T20:51:14.683Z,84.48
2023-04-14T20:53:45.214Z,84.60
2023-04-14T20:56:13.616Z,84.43
2023-04-14T20:58:43.705Z,84.69
2023-04-14T21:01:12.223Z,84.63
2023-04-14T21:03:40.752Z,84.55
2023-04-14T21:06:09.596Z,84.80
2023-04-14T21:08:40.054Z,84.74
2023-04-14T21:11:16.719Z,84.54
2023-04-14T21:15:28.493Z,84.75
2023-04-14T21:16:35.035Z,84.53
2023-04-14T21:19:04.399Z,84.74
2023-04-14T21:21:33.358Z,84.80
2023-04-14T21:24:03.369Z,84.56
2023-04-14T21:26:31.994Z,85.01
2023-04-14T21:29:01.006Z,84.97
2023-04-14T21:31:29.624Z,84.88
2023-04-14T21:33:58.040Z,85.27
2023-04-14T21:36:27.414Z,84.97
2023-04-14T21:38:56.528Z,85.03
2023-04-14T21:41:26.433Z,85.15
2023-04-14T21:43:54.803Z,85.07
2023-04-14T21:46:23.427Z,85.67
2023-04-14T21:48:51.936Z,85.63
2023-04-14T21:51:20.297Z,85.69
2023-04-14T21:53:48.771Z,85.48
2023-04-14T21:56:17.583Z,85.43
2023-04-14T21:58:47.330Z,85.41
2023-04-14T22:01:15.859Z,85.68
2023-04-14T22:03:45.109Z,85.66
2023-04-14T22:06:14.352Z,85.53
2023-04-14T22:08:44.280Z,86.05
2023-04-14T22:11:12.793Z,85.84
2023-04-14T22:13:41.255Z,86.20
2023-04-14T22:16:11.510Z,86.03
2023-04-14T22:18:40.681Z,86.26
2023-04-14T22:21:12.090Z,86.02
2023-04-14T22:23:40.611Z,86.02
2023-04-14T22:26:09.073Z,86.34
2023-04-14T22:28:37.627Z,86.32
2023-04-14T22:31:06.536Z,86.24
2023-04-14T22:33:36.428Z,86.50
2023-04-14T22:36:07.012Z,86.51
2023-04-14T22:38:35.485Z,86.53
2023-04-14T22:41:03.876Z,86.30
2023-04-14T22:43:32.326Z,85.97
2023-04-14T22:46:00.797Z,86.13
2023-04-14T22:48:29.187Z,86.13
2023-04-14T22:50:58.941Z,86.48
2023-04-14T22:53:27.408Z,86.63
2023-04-14T22:55:55.791Z,86.55
2023-04-14T22:58:24.186Z,85.94
2023-04-14T23:00:52.588Z,86.18
2023-04-14T23:03:21.363Z,86.20
2023-04-14T23:05:51.821Z,86.34
2023-04-14T23:08:21.586Z,86.50
2023-04-14T23:10:50.079Z,86.57
2023-04-14T23:13:18.461Z,86.58
2023-04-14T23:15:46.892Z,86.66
2023-04-14T23:18:21.361Z,86.65
2023-04-14T23:20:49.710Z,86.65
2023-04-14T23:23:18.053Z,86.34
2023-04-14T23:25:47.880Z,86.32
2023-04-14T23:28:16.398Z,86.49
2023-04-14T23:30:45.054Z,86.59
2023-04-14T23:33:13.757Z,86.56
2023-04-14T23:35:42.391Z,86.40
2023-04-14T23:38:10.733Z,86.67
2023-04-14T23:40:39.144Z,86.54
2023-04-14T23:43:08.922Z,86.47
2023-04-14T23:45:37.881Z,86.93
2023-04-14T23:48:06.845Z,86.32
2023-04-14T23:50:58.893Z,86.44
2023-04-14T23:53:23.931Z,86.27
2023-04-14T23:55:52.932Z,86.37
2023-04-14T23:58:26.861Z,86.80
